Terminal Aerodrome Forecast
Issued by NWS

Home | Current Version | Previous Version | Text Only | Print | Product List | Glossary On
Versions: 1 2 3 4 5 6 7 8 9 10 11 12 13 14 15 16
000
FTUS41 KAKQ 222320
TAFPHF
TAF
KPHF 222320Z 2300/2324 21013KT P6SM SKC
     FM231200 24008KT P6SM SCT250
     FM231700 28006KT P6SM BKN100
     FM231800 29005KT 4SM SHRA OVC080
     FM232000 36006KT 4SM SHRA BKN050=

USA.gov is the U.S. government's official web portal to all federal, state and local government web resources and services.